sensor_id;sensor_type;location;lat;lon;timestamp;P1;durP1;ratioP1;P2;durP2;ratioP2
76228;SDS011;65021;53.174;18.160;2023-09-07T00:00:58;14.00;;;8.40;;
76228;SDS011;65021;53.174;18.160;2023-09-07T00:03:35;12.60;;;9.10;;
76228;SDS011;65021;53.174;18.160;2023-09-07T00:06:07;12.60;;;7.90;;
76228;SDS011;65021;53.174;18.160;2023-09-07T00:08:34;12.30;;;8.40;;
76228;SDS011;65021;53.174;18.160;2023-09-07T00:11:04;13.50;;;9.10;;
76228;SDS011;65021;53.174;18.160;2023-09-07T00:13:32;13.70;;;7.90;;
76228;SDS011;65021;53.174;18.160;2023-09-07T00:16:00;12.80;;;8.80;;
76228;SDS011;65021;53.174;18.160;2023-09-07T00:18:29;14.80;;;9.90;;
76228;SDS011;65021;53.174;18.160;2023-09-07T00:20:56;14.10;;;8.80;;
76228;SDS011;65021;53.174;18.160;2023-09-07T00:23:22;16.70;;;10.60;;
76228;SDS011;65021;53.174;18.160;2023-09-07T00:25:49;15.50;;;9.20;;
76228;SDS011;65021;53.174;18.160;2023-09-07T00:28:15;9.90;;;6.80;;
76228;SDS011;65021;53.174;18.160;2023-09-07T00:30:42;16.70;;;9.50;;
76228;SDS011;65021;53.174;18.160;2023-09-07T00:33:09;18.00;;;10.40;;
76228;SDS011;65021;53.174;18.160;2023-09-07T00:35:37;18.60;;;10.60;;
76228;SDS011;65021;53.174;18.160;2023-09-07T00:38:03;18.30;;;11.10;;
76228;SDS011;65021;53.174;18.160;2023-09-07T00:40:30;14.90;;;9.70;;
76228;SDS011;65021;53.174;18.160;2023-09-07T00:42:56;16.80;;;11.00;;
76228;SDS011;65021;53.174;18.160;2023-09-07T00:45:25;17.10;;;10.50;;
76228;SDS011;65021;53.174;18.160;2023-09-07T00:47:51;16.60;;;10.60;;
76228;SDS011;65021;53.174;18.160;2023-09-07T00:50:18;14.70;;;9.50;;
76228;SDS011;65021;53.174;18.160;2023-09-07T00:52:45;12.70;;;8.80;;
76228;SDS011;65021;53.174;18.160;2023-09-07T00:55:13;19.00;;;11.20;;
76228;SDS011;65021;53.174;18.160;2023-09-07T00:57:40;14.90;;;9.70;;
76228;SDS011;65021;53.174;18.160;2023-09-07T01:00:08;15.70;;;9.60;;
76228;SDS011;65021;53.174;18.160;2023-09-07T01:02:36;16.10;;;9.30;;
76228;SDS011;65021;53.174;18.160;2023-09-07T01:05:02;16.80;;;11.20;;
76228;SDS011;65021;53.174;18.160;2023-09-07T01:07:37;16.20;;;10.20;;
76228;SDS011;65021;53.174;18.160;2023-09-07T01:10:06;19.40;;;12.90;;
76228;SDS011;65021;53.174;18.160;2023-09-07T01:12:34;17.80;;;10.10;;
76228;SDS011;65021;53.174;18.160;2023-09-07T01:15:00;25.40;;;14.20;;
76228;SDS011;65021;53.174;18.160;2023-09-07T01:17:28;23.00;;;15.10;;
76228;SDS011;65021;53.174;18.160;2023-09-07T01:19:55;27.70;;;16.40;;
76228;SDS011;65021;53.174;18.160;2023-09-07T01:22:25;19.60;;;11.50;;
76228;SDS011;65021;53.174;18.160;2023-09-07T01:24:52;23.70;;;14.80;;
76228;SDS011;65021;53.174;18.160;2023-09-07T01:27:19;27.10;;;16.50;;
76228;SDS011;65021;53.174;18.160;2023-09-07T01:29:45;21.90;;;12.90;;
76228;SDS011;65021;53.174;18.160;2023-09-07T01:32:12;25.60;;;15.10;;
76228;SDS011;65021;53.174;18.160;2023-09-07T01:34:39;24.50;;;14.60;;
76228;SDS011;65021;53.174;18.160;2023-09-07T01:37:06;23.80;;;13.70;;
76228;SDS011;65021;53.174;18.160;2023-09-07T01:39:33;33.40;;;16.60;;
76228;SDS011;65021;53.174;18.160;2023-09-07T01:41:59;16.50;;;8.00;;
76228;SDS011;65021;53.174;18.160;2023-09-07T01:44:26;30.20;;;16.40;;
76228;SDS011;65021;53.174;18.160;2023-09-07T01:46:53;27.70;;;16.30;;
76228;SDS011;65021;53.174;18.160;2023-09-07T01:49:19;31.90;;;16.90;;
76228;SDS011;65021;53.174;18.160;2023-09-07T01:51:46;33.30;;;17.30;;
76228;SDS011;65021;53.174;18.160;2023-09-07T01:54:12;30.90;;;16.20;;
76228;SDS011;65021;53.174;18.160;2023-09-07T01:56:39;34.80;;;18.30;;
76228;SDS011;65021;53.174;18.160;2023-09-07T01:59:07;32.00;;;13.70;;
76228;SDS011;65021;53.174;18.160;2023-09-07T02:01:34;35.10;;;18.10;;
76228;SDS011;65021;53.174;18.160;2023-09-07T02:04:03;32.50;;;12.80;;
76228;SDS011;65021;53.174;18.160;2023-09-07T02:06:29;41.90;;;18.30;;
76228;SDS011;65021;53.174;18.160;2023-09-07T02:08:59;30.30;;;15.90;;
76228;SDS011;65021;53.174;18.160;2023-09-07T02:11:25;38.30;;;17.70;;
76228;SDS011;65021;53.174;18.160;2023-09-07T02:13:52;35.20;;;16.80;;
76228;SDS011;65021;53.174;18.160;2023-09-07T02:16:19;35.70;;;18.10;;
76228;SDS011;65021;53.174;18.160;2023-09-07T02:18:49;44.40;;;17.90;;
76228;SDS011;65021;53.174;18.160;2023-09-07T02:21:16;20.40;;;10.80;;
76228;SDS011;65021;53.174;18.160;2023-09-07T02:23:43;38.60;;;17.80;;
76228;SDS011;65021;53.174;18.160;2023-09-07T02:26:09;44.50;;;18.50;;
76228;SDS011;65021;53.174;18.160;2023-09-07T02:28:36;45.10;;;19.00;;
76228;SDS011;65021;53.174;18.160;2023-09-07T02:31:03;58.90;;;17.30;;
76228;SDS011;65021;53.174;18.160;2023-09-07T02:33:30;40.70;;;16.50;;
76228;SDS011;65021;53.174;18.160;2023-09-07T02:35:57;35.80;;;15.60;;
76228;SDS011;65021;53.174;18.160;2023-09-07T02:38:24;24.80;;;11.60;;
76228;SDS011;65021;53.174;18.160;2023-09-07T02:40:51;35.80;;;15.60;;
76228;SDS011;65021;53.174;18.160;2023-09-07T02:43:19;33.40;;;16.60;;
76228;SDS011;65021;53.174;18.160;2023-09-07T02:45:46;30.90;;;13.60;;
76228;SDS011;65021;53.174;18.160;2023-09-07T02:48:14;41.90;;;15.10;;
76228;SDS011;65021;53.174;18.160;2023-09-07T02:50:41;38.10;;;16.60;;
76228;SDS011;65021;53.174;18.160;2023-09-07T02:53:08;36.80;;;14.80;;
76228;SDS011;65021;53.174;18.160;2023-09-07T02:55:35;80.90;;;19.30;;
76228;SDS011;65021;53.174;18.160;2023-09-07T02:58:04;58.20;;;18.50;;
76228;SDS011;65021;53.174;18.160;2023-09-07T03:00:31;47.00;;;16.80;;
76228;SDS011;65021;53.174;18.160;2023-09-07T03:02:57;58.40;;;15.30;;
76228;SDS011;65021;53.174;18.160;2023-09-07T03:05:26;41.80;;;15.00;;
76228;SDS011;65021;53.174;18.160;2023-09-07T03:07:54;33.30;;;14.50;;
76228;SDS011;65021;53.174;18.160;2023-09-07T03:10:20;25.00;;;9.90;;
76228;SDS011;65021;53.174;18.160;2023-09-07T03:12:47;37.40;;;15.90;;
76228;SDS011;65021;53.174;18.160;2023-09-07T03:15:13;42.90;;;13.90;;
76228;SDS011;65021;53.174;18.160;2023-09-07T03:17:42;35.30;;;13.20;;
76228;SDS011;65021;53.174;18.160;2023-09-07T03:20:08;39.40;;;13.00;;
76228;SDS011;65021;53.174;18.160;2023-09-07T03:22:42;43.00;;;15.40;;
76228;SDS011;65021;53.174;18.160;2023-09-07T03:25:10;39.00;;;14.20;;
76228;SDS011;65021;53.174;18.160;2023-09-07T03:27:37;41.70;;;14.50;;
76228;SDS011;65021;53.174;18.160;2023-09-07T03:30:04;40.30;;;15.10;;
76228;SDS011;65021;53.174;18.160;2023-09-07T03:32:32;47.60;;;15.00;;
76228;SDS011;65021;53.174;18.160;2023-09-07T03:34:59;52.90;;;14.80;;
76228;SDS011;65021;53.174;18.160;2023-09-07T03:37:33;27.40;;;11.20;;
76228;SDS011;65021;53.174;18.160;2023-09-07T03:39:59;43.20;;;14.90;;
76228;SDS011;65021;53.174;18.160;2023-09-07T03:42:26;44.30;;;13.90;;
76228;SDS011;65021;53.174;18.160;2023-09-07T03:44:52;40.50;;;16.30;;
76228;SDS011;65021;53.174;18.160;2023-09-07T03:47:19;47.00;;;15.10;;
76228;SDS011;65021;53.174;18.160;2023-09-07T03:49:45;43.00;;;16.20;;
76228;SDS011;65021;53.174;18.160;2023-09-07T03:52:12;41.90;;;16.30;;
76228;SDS011;65021;53.174;18.160;2023-09-07T03:54:38;34.20;;;16.00;;
76228;SDS011;65021;53.174;18.160;2023-09-07T03:57:05;39.20;;;14.90;;
76228;SDS011;65021;53.174;18.160;2023-09-07T03:59:32;53.80;;;16.10;;
76228;SDS011;65021;53.174;18.160;2023-09-07T04:01:58;59.10;;;15.00;;
76228;SDS011;65021;53.174;18.160;2023-09-07T04:04:25;37.00;;;15.60;;
76228;SDS011;65021;53.174;18.160;2023-09-07T04:06:51;39.80;;;15.20;;
76228;SDS011;65021;53.174;18.160;2023-09-07T04:09:18;75.00;;;17.50;;
76228;SDS011;65021;53.174;18.160;2023-09-07T04:11:44;34.30;;;13.30;;
76228;SDS011;65021;53.174;18.160;2023-09-07T04:14:11;43.80;;;15.50;;
76228;SDS011;65021;53.174;18.160;2023-09-07T04:16:37;33.20;;;14.60;;
76228;SDS011;65021;53.174;18.160;2023-09-07T04:19:04;46.40;;;16.10;;
76228;SDS011;65021;53.174;18.160;2023-09-07T04:21:30;50.00;;;14.70;;
76228;SDS011;65021;53.174;18.160;2023-09-07T04:23:57;70.60;;;15.90;;
76228;SDS011;65021;53.174;18.160;2023-09-07T04:26:23;42.30;;;13.90;;
76228;SDS011;65021;53.174;18.160;2023-09-07T04:28:50;38.00;;;13.90;;
76228;SDS011;65021;53.174;18.160;2023-09-07T04:31:16;48.90;;;16.40;;
76228;SDS011;65021;53.174;18.160;2023-09-07T04:33:43;35.90;;;13.70;;
76228;SDS011;65021;53.174;18.160;2023-09-07T04:36:10;47.00;;;14.00;;
76228;SDS011;65021;53.174;18.160;2023-09-07T04:38:38;26.80;;;10.30;;
76228;SDS011;65021;53.174;18.160;2023-09-07T04:41:11;40.50;;;13.00;;
76228;SDS011;65021;53.174;18.160;2023-09-07T04:43:40;39.30;;;13.00;;
76228;SDS011;65021;53.174;18.160;2023-09-07T04:46:09;32.90;;;12.40;;
76228;SDS011;65021;53.174;18.160;2023-09-07T04:48:37;46.90;;;11.80;;
76228;SDS011;65021;53.174;18.160;2023-09-07T04:51:05;21.70;;;11.10;;
76228;SDS011;65021;53.174;18.160;2023-09-07T04:53:33;29.00;;;11.80;;
76228;SDS011;65021;53.174;18.160;2023-09-07T04:56:01;23.70;;;12.30;;
76228;SDS011;65021;53.174;18.160;2023-09-07T04:58:29;36.60;;;12.30;;
76228;SDS011;65021;53.174;18.160;2023-09-07T05:01:06;48.30;;;13.40;;
76228;SDS011;65021;53.174;18.160;2023-09-07T05:03:35;28.70;;;11.90;;
76228;SDS011;65021;53.174;18.160;2023-09-07T05:06:02;25.70;;;11.30;;
76228;SDS011;65021;53.174;18.160;2023-09-07T05:08:30;24.60;;;12.10;;
76228;SDS011;65021;53.174;18.160;2023-09-07T05:10:57;38.00;;;13.60;;
76228;SDS011;65021;53.174;18.160;2023-09-07T05:13:25;24.40;;;11.90;;
76228;SDS011;65021;53.174;18.160;2023-09-07T05:15:53;34.20;;;11.80;;
76228;SDS011;65021;53.174;18.160;2023-09-07T05:18:21;25.60;;;12.60;;
76228;SDS011;65021;53.174;18.160;2023-09-07T05:20:48;21.20;;;10.40;;
76228;SDS011;65021;53.174;18.160;2023-09-07T05:25:48;27.50;;;12.70;;
76228;SDS011;65021;53.174;18.160;2023-09-07T05:28:19;19.20;;;11.20;;
76228;SDS011;65021;53.174;18.160;2023-09-07T05:30:47;21.40;;;10.50;;
76228;SDS011;65021;53.174;18.160;2023-09-07T05:33:15;26.10;;;12.50;;
76228;SDS011;65021;53.174;18.160;2023-09-07T05:35:42;25.10;;;10.20;;
76228;SDS011;65021;53.174;18.160;2023-09-07T05:38:11;19.40;;;10.10;;
76228;SDS011;65021;53.174;18.160;2023-09-07T05:40:41;24.70;;;11.10;;
76228;SDS011;65021;53.174;18.160;2023-09-07T05:43:10;25.10;;;10.60;;
76228;SDS011;65021;53.174;18.160;2023-09-07T05:45:38;25.10;;;10.00;;
76228;SDS011;65021;53.174;18.160;2023-09-07T05:48:07;18.50;;;10.90;;
76228;SDS011;65021;53.174;18.160;2023-09-07T05:50:34;22.40;;;11.50;;
76228;SDS011;65021;53.174;18.160;2023-09-07T05:53:02;19.30;;;10.80;;
76228;SDS011;65021;53.174;18.160;2023-09-07T05:55:29;19.20;;;10.90;;
76228;SDS011;65021;53.174;18.160;2023-09-07T05:57:57;20.30;;;10.80;;
76228;SDS011;65021;53.174;18.160;2023-09-07T06:00:24;20.30;;;9.90;;
76228;SDS011;65021;53.174;18.160;2023-09-07T06:02:50;17.20;;;9.30;;
76228;SDS011;65021;53.174;18.160;2023-09-07T06:05:17;19.80;;;10.50;;
76228;SDS011;65021;53.174;18.160;2023-09-07T06:07:44;17.80;;;10.30;;
76228;SDS011;65021;53.174;18.160;2023-09-07T06:10:11;14.90;;;9.10;;
76228;SDS011;65021;53.174;18.160;2023-09-07T06:12:38;16.80;;;10.40;;
76228;SDS011;65021;53.174;18.160;2023-09-07T06:15:04;16.10;;;9.50;;
76228;SDS011;65021;53.174;18.160;2023-09-07T06:17:31;16.80;;;9.30;;
76228;SDS011;65021;53.174;18.160;2023-09-07T06:19:58;15.80;;;9.80;;
76228;SDS011;65021;53.174;18.160;2023-09-07T06:22:25;13.30;;;8.40;;
76228;SDS011;65021;53.174;18.160;2023-09-07T06:24:51;16.30;;;9.60;;
76228;SDS011;65021;53.174;18.160;2023-09-07T06:27:18;16.90;;;10.30;;
76228;SDS011;65021;53.174;18.160;2023-09-07T06:29:44;15.30;;;9.50;;
76228;SDS011;65021;53.174;18.160;2023-09-07T06:32:11;18.60;;;9.50;;
76228;SDS011;65021;53.174;18.160;2023-09-07T06:34:37;16.90;;;10.30;;
76228;SDS011;65021;53.174;18.160;2023-09-07T06:37:04;18.20;;;9.90;;
76228;SDS011;65021;53.174;18.160;2023-09-07T06:39:31;13.00;;;9.20;;
76228;SDS011;65021;53.174;18.160;2023-09-07T06:41:58;15.20;;;9.50;;
76228;SDS011;65021;53.174;18.160;2023-09-07T06:44:24;15.00;;;9.50;;
76228;SDS011;65021;53.174;18.160;2023-09-07T06:46:51;15.40;;;9.00;;
76228;SDS011;65021;53.174;18.160;2023-09-07T06:49:17;15.80;;;9.30;;
76228;SDS011;65021;53.174;18.160;2023-09-07T06:51:44;14.60;;;9.00;;
76228;SDS011;65021;53.174;18.160;2023-09-07T06:54:10;12.90;;;8.20;;
76228;SDS011;65021;53.174;18.160;2023-09-07T06:56:37;13.40;;;8.60;;
76228;SDS011;65021;53.174;18.160;2023-09-07T06:59:03;11.00;;;7.50;;
76228;SDS011;65021;53.174;18.160;2023-09-07T07:01:30;11.70;;;7.40;;
76228;SDS011;65021;53.174;18.160;2023-09-07T07:03:57;12.00;;;8.00;;
76228;SDS011;65021;53.174;18.160;2023-09-07T07:06:23;12.20;;;8.30;;
76228;SDS011;65021;53.174;18.160;2023-09-07T07:08:51;10.60;;;6.40;;
76228;SDS011;65021;53.174;18.160;2023-09-07T07:11:18;12.00;;;7.30;;
76228;SDS011;65021;53.174;18.160;2023-09-07T07:13:45;12.40;;;8.30;;
76228;SDS011;65021;53.174;18.160;2023-09-07T07:16:12;12.80;;;6.60;;
76228;SDS011;65021;53.174;18.160;2023-09-07T07:18:39;12.40;;;8.00;;
76228;SDS011;65021;53.174;18.160;2023-09-07T07:21:06;11.40;;;7.30;;
76228;SDS011;65021;53.174;18.160;2023-09-07T07:23:33;10.50;;;8.20;;
76228;SDS011;65021;53.174;18.160;2023-09-07T07:25:59;12.90;;;8.20;;
76228;SDS011;65021;53.174;18.160;2023-09-07T07:28:26;10.50;;;7.20;;
76228;SDS011;65021;53.174;18.160;2023-09-07T07:30:52;14.30;;;8.80;;
76228;SDS011;65021;53.174;18.160;2023-09-07T07:33:20;10.00;;;6.40;;
76228;SDS011;65021;53.174;18.160;2023-09-07T07:35:47;12.10;;;8.30;;
76228;SDS011;65021;53.174;18.160;2023-09-07T07:38:13;11.60;;;7.30;;
76228;SDS011;65021;53.174;18.160;2023-09-07T07:40:40;10.60;;;7.00;;
76228;SDS011;65021;53.174;18.160;2023-09-07T07:43:07;9.70;;;7.30;;
76228;SDS011;65021;53.174;18.160;2023-09-07T07:45:35;12.30;;;7.60;;
76228;SDS011;65021;53.174;18.160;2023-09-07T07:48:04;9.50;;;6.40;;
76228;SDS011;65021;53.174;18.160;2023-09-07T07:50:37;12.20;;;8.70;;
76228;SDS011;65021;53.174;18.160;2023-09-07T07:53:06;10.90;;;7.00;;
76228;SDS011;65021;53.174;18.160;2023-09-07T07:55:36;11.30;;;7.50;;
76228;SDS011;65021;53.174;18.160;2023-09-07T07:58:05;12.10;;;7.60;;
76228;SDS011;65021;53.174;18.160;2023-09-07T08:00:38;10.50;;;7.20;;
76228;SDS011;65021;53.174;18.160;2023-09-07T08:03:07;10.10;;;6.60;;
76228;SDS011;65021;53.174;18.160;2023-09-07T08:05:34;11.50;;;8.00;;
76228;SDS011;65021;53.174;18.160;2023-09-07T08:08:01;11.50;;;7.80;;
76228;SDS011;65021;53.174;18.160;2023-09-07T08:10:28;9.40;;;6.60;;
76228;SDS011;65021;53.174;18.160;2023-09-07T08:12:55;9.30;;;6.70;;
76228;SDS011;65021;53.174;18.160;2023-09-07T08:15:22;10.30;;;7.50;;
76228;SDS011;65021;53.174;18.160;2023-09-07T08:17:51;9.40;;;6.30;;
76228;SDS011;65021;53.174;18.160;2023-09-07T08:20:18;12.70;;;6.60;;
76228;SDS011;65021;53.174;18.160;2023-09-07T08:22:44;11.00;;;6.70;;
76228;SDS011;65021;53.174;18.160;2023-09-07T08:25:12;8.50;;;5.70;;
76228;SDS011;65021;53.174;18.160;2023-09-07T08:27:42;10.30;;;7.10;;
76228;SDS011;65021;53.174;18.160;2023-09-07T08:30:14;8.70;;;6.10;;
76228;SDS011;65021;53.174;18.160;2023-09-07T08:32:44;8.80;;;6.10;;
76228;SDS011;65021;53.174;18.160;2023-09-07T08:35:12;9.60;;;7.00;;
76228;SDS011;65021;53.174;18.160;2023-09-07T08:37:40;9.50;;;6.60;;
76228;SDS011;65021;53.174;18.160;2023-09-07T08:40:06;9.50;;;6.70;;
76228;SDS011;65021;53.174;18.160;2023-09-07T08:42:35;10.90;;;7.50;;
76228;SDS011;65021;53.174;18.160;2023-09-07T08:45:05;9.20;;;6.40;;
76228;SDS011;65021;53.174;18.160;2023-09-07T08:47:35;9.30;;;6.00;;
76228;SDS011;65021;53.174;18.160;2023-09-07T08:50:06;8.40;;;5.60;;
76228;SDS011;65021;53.174;18.160;2023-09-07T08:52:34;8.10;;;5.80;;
76228;SDS011;65021;53.174;18.160;2023-09-07T08:55:02;8.50;;;6.00;;
76228;SDS011;65021;53.174;18.160;2023-09-07T08:57:32;10.90;;;6.40;;
76228;SDS011;65021;53.174;18.160;2023-09-07T08:59:59;9.80;;;5.50;;
76228;SDS011;65021;53.174;18.160;2023-09-07T09:02:25;8.50;;;5.40;;
76228;SDS011;65021;53.174;18.160;2023-09-07T09:04:52;7.50;;;5.70;;
76228;SDS011;65021;53.174;18.160;2023-09-07T09:07:19;21.00;;;6.70;;
76228;SDS011;65021;53.174;18.160;2023-09-07T09:09:47;8.10;;;5.50;;
76228;SDS011;65021;53.174;18.160;2023-09-07T09:12:13;8.50;;;6.00;;
76228;SDS011;65021;53.174;18.160;2023-09-07T09:14:43;8.90;;;6.30;;
76228;SDS011;65021;53.174;18.160;2023-09-07T09:17:14;8.70;;;6.30;;
76228;SDS011;65021;53.174;18.160;2023-09-07T09:19:41;7.30;;;5.20;;
76228;SDS011;65021;53.174;18.160;2023-09-07T09:22:08;7.80;;;5.40;;
76228;SDS011;65021;53.174;18.160;2023-09-07T09:24:35;8.00;;;6.00;;
76228;SDS011;65021;53.174;18.160;2023-09-07T09:27:02;10.30;;;5.50;;
76228;SDS011;65021;53.174;18.160;2023-09-07T09:29:33;8.40;;;5.00;;
76228;SDS011;65021;53.174;18.160;2023-09-07T09:32:04;7.50;;;5.20;;
76228;SDS011;65021;53.174;18.160;2023-09-07T09:34:33;6.20;;;3.90;;
76228;SDS011;65021;53.174;18.160;2023-09-07T09:37:01;9.80;;;5.40;;
76228;SDS011;65021;53.174;18.160;2023-09-07T09:39:28;7.90;;;6.10;;
76228;SDS011;65021;53.174;18.160;2023-09-07T09:41:54;7.70;;;5.20;;
76228;SDS011;65021;53.174;18.160;2023-09-07T09:44:22;7.60;;;5.60;;
76228;SDS011;65021;53.174;18.160;2023-09-07T09:46:52;8.00;;;5.60;;
76228;SDS011;65021;53.174;18.160;2023-09-07T09:49:22;7.30;;;5.30;;
76228;SDS011;65021;53.174;18.160;2023-09-07T09:51:49;8.20;;;5.10;;
76228;SDS011;65021;53.174;18.160;2023-09-07T09:54:20;7.50;;;5.00;;
76228;SDS011;65021;53.174;18.160;2023-09-07T09:56:48;7.60;;;4.70;;
76228;SDS011;65021;53.174;18.160;2023-09-07T09:59:14;9.30;;;5.20;;
76228;SDS011;65021;53.174;18.160;2023-09-07T10:01:45;8.60;;;5.00;;
76228;SDS011;65021;53.174;18.160;2023-09-07T10:04:14;7.70;;;5.30;;
76228;SDS011;65021;53.174;18.160;2023-09-07T10:06:58;7.00;;;5.10;;
76228;SDS011;65021;53.174;18.160;2023-09-07T10:09:34;8.90;;;5.20;;
76228;SDS011;65021;53.174;18.160;2023-09-07T10:12:02;8.30;;;5.80;;
76228;SDS011;65021;53.174;18.160;2023-09-07T10:14:40;7.70;;;5.90;;
76228;SDS011;65021;53.174;18.160;2023-09-07T10:17:08;8.70;;;5.40;;
76228;SDS011;65021;53.174;18.160;2023-09-07T10:19:35;7.60;;;5.60;;
76228;SDS011;65021;53.174;18.160;2023-09-07T10:22:04;8.50;;;5.80;;
76228;SDS011;65021;53.174;18.160;2023-09-07T10:24:34;8.40;;;5.50;;
76228;SDS011;65021;53.174;18.160;2023-09-07T10:27:06;7.90;;;5.70;;
76228;SDS011;65021;53.174;18.160;2023-09-07T10:29:40;8.30;;;5.50;;
76228;SDS011;65021;53.174;18.160;2023-09-07T10:32:11;8.70;;;5.40;;
76228;SDS011;65021;53.174;18.160;2023-09-07T10:34:41;10.70;;;5.20;;
76228;SDS011;65021;53.174;18.160;2023-09-07T10:37:13;9.10;;;5.80;;
76228;SDS011;65021;53.174;18.160;2023-09-07T10:39:41;9.50;;;5.70;;
76228;SDS011;65021;53.174;18.160;2023-09-07T10:44:50;8.10;;;5.80;;
76228;SDS011;65021;53.174;18.160;2023-09-07T10:47:16;8.20;;;5.60;;
76228;SDS011;65021;53.174;18.160;2023-09-07T10:49:43;8.30;;;5.30;;
76228;SDS011;65021;53.174;18.160;2023-09-07T10:52:10;7.30;;;5.70;;
76228;SDS011;65021;53.174;18.160;2023-09-07T10:54:36;8.90;;;5.40;;
76228;SDS011;65021;53.174;18.160;2023-09-07T10:57:09;8.30;;;5.80;;
76228;SDS011;65021;53.174;18.160;2023-09-07T10:59:44;6.40;;;4.80;;
76228;SDS011;65021;53.174;18.160;2023-09-07T11:02:11;7.20;;;4.50;;
76228;SDS011;65021;53.174;18.160;2023-09-07T11:04:37;7.00;;;5.00;;
76228;SDS011;65021;53.174;18.160;2023-09-07T11:07:04;8.10;;;4.40;;
76228;SDS011;65021;53.174;18.160;2023-09-07T11:09:31;6.90;;;5.20;;
76228;SDS011;65021;53.174;18.160;2023-09-07T11:12:04;6.10;;;3.80;;
76228;SDS011;65021;53.174;18.160;2023-09-07T11:14:31;22.70;;;5.90;;
76228;SDS011;65021;53.174;18.160;2023-09-07T11:16:58;7.60;;;4.60;;
76228;SDS011;65021;53.174;18.160;2023-09-07T11:19:24;9.10;;;4.50;;
76228;SDS011;65021;53.174;18.160;2023-09-07T11:21:55;7.50;;;4.30;;
76228;SDS011;65021;53.174;18.160;2023-09-07T11:24:23;7.00;;;4.00;;
76228;SDS011;65021;53.174;18.160;2023-09-07T11:26:50;6.40;;;4.20;;
76228;SDS011;65021;53.174;18.160;2023-09-07T11:29:17;6.80;;;4.00;;
76228;SDS011;65021;53.174;18.160;2023-09-07T11:31:45;9.30;;;4.50;;
76228;SDS011;65021;53.174;18.160;2023-09-07T11:34:12;7.50;;;4.20;;
76228;SDS011;65021;53.174;18.160;2023-09-07T11:36:42;6.50;;;4.20;;
76228;SDS011;65021;53.174;18.160;2023-09-07T11:39:12;6.20;;;4.40;;
76228;SDS011;65021;53.174;18.160;2023-09-07T11:41:40;5.50;;;3.90;;
76228;SDS011;65021;53.174;18.160;2023-09-07T11:44:10;5.70;;;3.90;;
76228;SDS011;65021;53.174;18.160;2023-09-07T11:46:37;7.00;;;4.70;;
76228;SDS011;65021;53.174;18.160;2023-09-07T11:49:04;6.00;;;3.20;;
76228;SDS011;65021;53.174;18.160;2023-09-07T11:51:32;5.10;;;3.10;;
76228;SDS011;65021;53.174;18.160;2023-09-07T11:53:58;6.60;;;3.70;;
76228;SDS011;65021;53.174;18.160;2023-09-07T11:56:25;5.30;;;3.30;;
76228;SDS011;65021;53.174;18.160;2023-09-07T11:58:53;8.60;;;3.70;;
76228;SDS011;65021;53.174;18.160;2023-09-07T12:01:19;6.40;;;3.60;;
76228;SDS011;65021;53.174;18.160;2023-09-07T12:03:46;6.90;;;3.50;;
76228;SDS011;65021;53.174;18.160;2023-09-07T12:06:13;6.90;;;3.30;;
76228;SDS011;65021;53.174;18.160;2023-09-07T12:08:47;6.10;;;3.60;;
76228;SDS011;65021;53.174;18.160;2023-09-07T12:11:33;6.00;;;3.20;;
76228;SDS011;65021;53.174;18.160;2023-09-07T12:13:59;5.40;;;3.20;;
76228;SDS011;65021;53.174;18.160;2023-09-07T12:16:26;5.20;;;2.80;;
76228;SDS011;65021;53.174;18.160;2023-09-07T12:18:53;4.60;;;2.90;;
76228;SDS011;65021;53.174;18.160;2023-09-07T12:21:20;6.20;;;3.50;;
76228;SDS011;65021;53.174;18.160;2023-09-07T12:23:47;6.40;;;3.40;;
76228;SDS011;65021;53.174;18.160;2023-09-07T12:26:14;5.50;;;3.00;;
76228;SDS011;65021;53.174;18.160;2023-09-07T12:28:42;5.50;;;3.10;;
76228;SDS011;65021;53.174;18.160;2023-09-07T12:31:10;5.50;;;2.90;;
76228;SDS011;65021;53.174;18.160;2023-09-07T12:33:38;4.70;;;3.10;;
76228;SDS011;65021;53.174;18.160;2023-09-07T12:36:04;6.00;;;3.00;;
76228;SDS011;65021;53.174;18.160;2023-09-07T12:38:35;6.80;;;3.40;;
76228;SDS011;65021;53.174;18.160;2023-09-07T12:41:02;17.80;;;3.80;;
76228;SDS011;65021;53.174;18.160;2023-09-07T12:43:29;5.60;;;2.70;;
76228;SDS011;65021;53.174;18.160;2023-09-07T12:45:55;5.80;;;3.20;;
76228;SDS011;65021;53.174;18.160;2023-09-07T12:48:22;6.20;;;2.90;;
76228;SDS011;65021;53.174;18.160;2023-09-07T12:50:48;6.00;;;3.30;;
76228;SDS011;65021;53.174;18.160;2023-09-07T12:53:15;4.40;;;2.80;;
76228;SDS011;65021;53.174;18.160;2023-09-07T12:55:42;7.00;;;3.60;;
76228;SDS011;65021;53.174;18.160;2023-09-07T12:58:09;4.80;;;2.80;;
76228;SDS011;65021;53.174;18.160;2023-09-07T13:00:35;5.00;;;2.50;;
76228;SDS011;65021;53.174;18.160;2023-09-07T13:03:02;5.10;;;2.80;;
76228;SDS011;65021;53.174;18.160;2023-09-07T13:05:29;4.60;;;2.80;;
76228;SDS011;65021;53.174;18.160;2023-09-07T13:07:56;5.60;;;3.10;;
76228;SDS011;65021;53.174;18.160;2023-09-07T13:10:25;5.00;;;2.70;;
76228;SDS011;65021;53.174;18.160;2023-09-07T13:12:52;4.40;;;2.50;;
76228;SDS011;65021;53.174;18.160;2023-09-07T13:15:18;6.80;;;3.00;;
76228;SDS011;65021;53.174;18.160;2023-09-07T13:17:45;7.10;;;3.10;;
76228;SDS011;65021;53.174;18.160;2023-09-07T13:20:11;5.40;;;2.70;;
76228;SDS011;65021;53.174;18.160;2023-09-07T13:22:38;5.10;;;2.80;;
76228;SDS011;65021;53.174;18.160;2023-09-07T13:25:05;5.80;;;2.80;;
76228;SDS011;65021;53.174;18.160;2023-09-07T13:27:32;5.60;;;2.80;;
76228;SDS011;65021;53.174;18.160;2023-09-07T13:29:58;4.70;;;2.40;;
76228;SDS011;65021;53.174;18.160;2023-09-07T13:32:25;7.90;;;2.90;;
76228;SDS011;65021;53.174;18.160;2023-09-07T13:34:51;5.80;;;2.70;;
76228;SDS011;65021;53.174;18.160;2023-09-07T13:37:18;4.40;;;2.90;;
76228;SDS011;65021;53.174;18.160;2023-09-07T13:39:45;5.80;;;2.70;;
76228;SDS011;65021;53.174;18.160;2023-09-07T13:42:11;4.80;;;2.50;;
76228;SDS011;65021;53.174;18.160;2023-09-07T13:44:38;6.60;;;3.00;;
76228;SDS011;65021;53.174;18.160;2023-09-07T13:47:05;4.70;;;2.60;;
76228;SDS011;65021;53.174;18.160;2023-09-07T13:49:31;4.80;;;2.70;;
76228;SDS011;65021;53.174;18.160;2023-09-07T13:51:58;4.50;;;2.70;;
76228;SDS011;65021;53.174;18.160;2023-09-07T13:54:24;4.80;;;2.50;;
76228;SDS011;65021;53.174;18.160;2023-09-07T13:56:51;4.10;;;2.70;;
76228;SDS011;65021;53.174;18.160;2023-09-07T13:59:17;5.30;;;2.80;;
76228;SDS011;65021;53.174;18.160;2023-09-07T14:01:44;4.80;;;2.80;;
76228;SDS011;65021;53.174;18.160;2023-09-07T14:04:10;7.70;;;2.80;;
76228;SDS011;65021;53.174;18.160;2023-09-07T14:06:37;5.20;;;2.70;;
76228;SDS011;65021;53.174;18.160;2023-09-07T14:09:04;6.50;;;2.90;;
76228;SDS011;65021;53.174;18.160;2023-09-07T14:11:32;4.90;;;2.80;;
76228;SDS011;65021;53.174;18.160;2023-09-07T14:13:59;5.60;;;3.00;;
76228;SDS011;65021;53.174;18.160;2023-09-07T14:16:26;6.40;;;2.70;;
76228;SDS011;65021;53.174;18.160;2023-09-07T14:18:53;5.10;;;2.70;;
76228;SDS011;65021;53.174;18.160;2023-09-07T14:21:19;5.30;;;2.30;;
76228;SDS011;65021;53.174;18.160;2023-09-07T14:23:46;5.50;;;2.80;;
76228;SDS011;65021;53.174;18.160;2023-09-07T14:26:12;6.20;;;3.00;;
76228;SDS011;65021;53.174;18.160;2023-09-07T14:28:39;4.60;;;2.90;;